Time;durP1;ratioP1;P1;durP2;ratioP2;P2;SDS_P1;SDS_P2;PMS_P1;PMS_P2;Temp;Humidity;BMP_temperature;BMP_pressure;BME280_temperature;BME280_humidity;BME280_pressure;Samples;Min_cycle;Max_cycle;Signal;HPM_P1;HPM_P2
2022/10/26 00:00:52;;;;;;;22.25;11.05;;;;;;;9.43;70.29;101195.63;4914331;29;20509;-71
2022/10/26 00:03:18;;;;;;;17.40;10.18;;;;;;;9.63;69.80;101196.47;4914308;29;20059;-72
2022/10/26 00:05:45;;;;;;;18.92;10.32;;;;;;;9.59;69.71;101187.03;4914301;29;20059;-71
2022/10/26 00:08:11;;;;;;;15.38;9.90;;;;;;;9.55;70.05;101189.13;4914427;29;20052;-70
2022/10/26 00:10:38;;;;;;;19.05;11.00;;;;;;;9.48;69.90;101183.50;4914478;29;20075;-71
2022/10/26 00:13:09;;;;;;;17.48;9.80;;;;;;;9.54;69.92;101182.94;4914370;29;20524;-71
2022/10/26 00:15:39;;;;;;;20.07;10.13;;;;;;;9.49;70.09;101185.19;4913601;29;20059;-71
2022/10/26 00:18:05;;;;;;;17.33;10.05;;;;;;;9.29;70.73;101178.97;4914480;29;20288;-70
2022/10/26 00:20:32;;;;;;;18.25;9.30;;;;;;;9.45;70.31;101186.47;4917920;29;20048;-70
2022/10/26 00:22:58;;;;;;;20.80;9.80;;;;;;;9.50;69.88;101197.59;4917807;29;20048;-70
2022/10/26 00:25:25;;;;;;;16.00;10.13;;;;;;;9.32;70.72;101194.78;4918242;29;20055;-71
2022/10/26 00:27:52;;;;;;;16.80;9.88;;;;;;;9.28;70.93;101195.19;4918196;29;20055;-71
2022/10/26 00:30:18;;;;;;;15.68;9.38;;;;;;;9.46;70.27;101200.69;4918062;29;20055;-71
2022/10/26 00:32:44;;;;;;;17.38;8.77;;;;;;;9.38;70.51;101200.56;4916653;29;20052;-71
2022/10/26 00:35:11;;;;;;;25.55;9.68;;;;;;;9.45;70.16;101213.25;4918179;29;20056;-71
2022/10/26 00:37:54;;;;;;;18.27;9.30;;;;;;;9.21;70.93;101212.78;4917110;29;20126;-71
2022/10/26 00:40:21;;;;;;;;;;;;;;;9.32;70.54;101215.34;4918278;29;20056;-70
2022/10/26 00:42:47;;;;;;;18.10;9.65;;;;;;;9.24;70.51;101221.41;4917252;29;19950;-71
2022/10/26 00:45:14;;;;;;;20.10;9.73;;;;;;;9.24;70.56;101216.06;4917916;29;20478;-70
2022/10/26 00:47:47;;;;;;;17.83;9.70;;;;;;;9.29;70.31;101216.47;4917730;29;20059;-71
2022/10/26 00:50:21;;;;;;;14.93;8.95;;;;;;;9.34;69.97;101215.22;4917076;29;20513;-71
2022/10/26 00:52:50;;;;;;;15.65;9.20;;;;;;;9.31;70.18;101205.63;4917734;29;20052;-71
2022/10/26 00:55:20;;;;;;;19.42;9.35;;;;;;;9.35;70.09;101209.72;4917734;29;20052;-71
2022/10/26 00:57:50;;;;;;;17.15;9.82;;;;;;;9.35;70.08;101201.69;4917269;29;20519;-71
2022/10/26 01:00:17;;;;;;;17.77;9.77;;;;;;;9.30;70.29;101201.25;4899993;29;20496;-70
2022/10/26 01:02:46;;;;;;;14.43;9.52;;;;;;;9.37;70.19;101201.53;4917256;29;20469;-70
2022/10/26 01:09:00;;;;;;;19.60;10.40;;;;;;;9.33;69.95;101195.59;4917270;29;20054;-71
2022/10/26 01:11:27;;;;;;;15.57;9.52;;;;;;;9.29;69.92;101196.88;4916946;29;20048;-71
2022/10/26 01:13:55;;;;;;;20.83;10.23;;;;;;;9.26;70.34;101197.16;4917491;29;20048;-72
2022/10/26 01:16:45;;;;;;;17.67;9.57;;;;;;;9.28;69.99;101196.03;4917357;29;20052;-71
2022/10/26 01:19:44;;;;;;;25.23;10.13;;;;;;;9.29;70.03;101194.19;4917289;29;20056;-70
2022/10/26 01:22:10;;;;;;;16.83;8.95;;;;;;;9.25;70.13;101187.44;4917046;29;20048;-70
2022/10/26 01:25:15;;;;;;;13.02;8.82;;;;;;;9.33;69.91;101190.25;4917040;29;20059;-70
2022/10/26 01:27:46;;;;;;;15.85;9.23;;;;;;;9.33;70.02;101195.59;4821779;29;20051;-71
2022/10/26 01:30:29;;;;;;;14.27;9.82;;;;;;;9.30;70.04;101190.53;4821748;29;20069;-71
2022/10/26 01:33:16;;;;;;;15.20;8.80;;;;;;;9.28;70.13;101192.53;4821905;29;20058;-71
2022/10/26 01:36:07;;;;;;;14.80;8.82;;;;;;;9.26;69.88;101181.94;4821564;29;20465;-71
2022/10/26 01:38:56;;;;;;;16.75;9.02;;;;;;;9.30;69.75;101182.50;4821262;29;20492;-71
2022/10/26 01:41:30;;;;;;;16.15;8.90;;;;;;;9.35;69.67;101187.47;4821757;29;20054;-71
2022/10/26 01:44:27;;;;;;;16.10;9.27;;;;;;;9.30;69.63;101187.84;4822039;29;20050;-70
2022/10/26 01:46:56;;;;;;;20.92;9.23;;;;;;;9.27;69.64;101180.13;4820505;29;20581;-70
2022/10/26 01:49:27;;;;;;;17.23;8.60;;;;;;;9.26;69.62;101178.41;4821647;29;20062;-71
2022/10/26 01:51:54;;;;;;;17.23;9.75;;;;;;;9.26;69.63;101168.53;4821330;29;20043;-71
2022/10/26 01:54:20;;;;;;;15.18;9.07;;;;;;;9.18;69.97;101172.91;4821846;29;20062;-71
2022/10/26 01:56:50;;;;;;;14.90;9.20;;;;;;;9.08;70.28;101175.56;4821197;29;20051;-71
2022/10/26 01:59:46;;;;;;;18.63;8.98;;;;;;;9.05;70.34;101173.16;4898702;29;20513;-71
2022/10/26 02:02:57;;;;;;;16.98;9.02;;;;;;;9.02;70.18;101173.44;4916144;29;20497;-71
2022/10/26 02:05:35;;;;;;;18.27;9.68;;;;;;;8.99;70.38;101165.69;4907017;29;20417;-71
2022/10/26 02:08:25;;;;;;;15.50;8.63;;;;;;;8.97;70.30;101165.84;4899585;29;20055;-71
2022/10/26 02:11:30;;;;;;;14.50;9.02;;;;;;;8.95;70.36;101165.13;4915966;29;20429;-71
2022/10/26 02:14:11;;;;;;;17.40;9.18;;;;;;;8.97;70.09;101163.16;4899971;29;20425;-71
2022/10/26 02:16:57;;;;;;;16.75;9.10;;;;;;;8.96;70.26;101160.63;4916286;29;20048;-71
2022/10/26 02:19:41;;;;;;;18.38;8.30;;;;;;;8.98;70.13;101158.66;4915477;29;20051;-71
2022/10/26 02:22:33;;;;;;;13.68;8.50;;;;;;;8.94;70.23;101162.59;4915938;29;20044;-71
2022/10/26 02:25:06;;;;;;;19.58;8.48;;;;;;;8.31;71.97;101165.53;4916137;29;20052;-72
2022/10/26 02:27:40;;;;;;;15.48;8.30;;;;;;;8.29;73.02;101164.78;4916348;29;20044;-71
2022/10/26 02:30:08;;;;;;;18.77;8.63;;;;;;;8.59;71.89;101163.91;4915837;29;20048;-71
2022/10/26 02:32:39;;;;;;;14.20;9.57;;;;;;;8.48;71.86;101162.22;4916701;29;20051;-72
2022/10/26 02:35:06;;;;;;;15.60;9.00;;;;;;;8.19;73.08;101167.41;4915452;29;20048;-71
2022/10/26 02:37:36;;;;;;;16.95;9.73;;;;;;;8.38;72.66;101166.66;4916065;29;20044;-72
2022/10/26 02:40:08;;;;;;;14.18;8.85;;;;;;;8.36;72.75;101165.94;4916240;29;20044;-71
2022/10/26 02:42:36;;;;;;;16.00;8.95;;;;;;;8.47;72.09;101168.53;4915778;29;20044;-71
2022/10/26 02:45:08;;;;;;;17.02;9.38;;;;;;;8.35;72.55;101166.94;4915758;29;20413;-71
2022/10/26 02:47:35;;;;;;;20.13;9.57;;;;;;;8.40;72.16;101169.19;4915577;29;20497;-71
2022/10/26 02:50:02;;;;;;;18.73;9.55;;;;;;;8.36;72.27;101174.84;4911897;29;20055;-71
2022/10/26 02:52:37;;;;;;;14.43;9.63;;;;;;;8.41;72.16;101174.44;4915597;29;20048;-71
2022/10/26 02:55:11;;;;;;;15.57;9.00;;;;;;;8.44;71.91;101173.31;4905904;29;20413;-72
2022/10/26 02:57:41;;;;;;;13.02;8.90;;;;;;;8.56;71.50;101180.25;4915194;29;20048;-71
2022/10/26 03:00:13;;;;;;;18.52;8.98;;;;;;;8.28;72.08;101171.13;4915273;29;20052;-70
2022/10/26 03:02:45;;;;;;;18.30;9.35;;;;;;;8.29;72.21;101178.16;4915216;29;20052;-71
2022/10/26 03:05:23;;;;;;;17.65;9.35;;;;;;;8.16;72.64;101180.22;4915422;29;20453;-71
2022/10/26 03:07:50;;;;;;;13.73;8.48;;;;;;;8.12;72.77;101176.94;4915719;29;20052;-72
2022/10/26 03:10:17;;;;;;;14.32;8.30;;;;;;;8.20;72.90;101171.81;4915607;29;20058;-70
2022/10/26 03:12:43;;;;;;;17.25;8.55;;;;;;;8.27;72.77;101169.44;4915688;29;20481;-71
2022/10/26 03:15:11;;;;;;;18.70;12.02;;;;;;;8.08;73.35;101178.19;4915576;29;20051;-72
2022/10/26 03:17:37;;;;;;;18.95;9.75;;;;;;;8.24;72.75;101177.72;4916021;29;20044;-71
2022/10/26 03:20:04;;;;;;;12.80;8.60;;;;;;;8.30;71.94;101171.84;4915671;29;20048;-71
2022/10/26 03:22:30;;;;;;;19.25;9.25;;;;;;;8.30;71.84;101182.56;4915327;29;20059;-71
2022/10/26 03:24:57;;;;;;;13.35;9.20;;;;;;;8.26;72.10;101178.44;4915390;29;20425;-72
2022/10/26 03:27:25;;;;;;;16.90;8.50;;;;;;;8.13;72.56;101184.00;4915339;29;20532;-72
2022/10/26 03:29:52;;;;;;;11.95;7.82;;;;;;;8.32;71.70;101184.09;4915476;29;20052;-71
2022/10/26 03:32:19;;;;;;;14.70;9.27;;;;;;;8.37;71.45;101181.88;4915123;29;20099;-71
2022/10/26 03:34:45;;;;;;;15.38;8.02;;;;;;;8.40;71.26;101183.44;4915160;29;20051;-71
2022/10/26 03:37:12;;;;;;;14.90;8.10;;;;;;;8.26;71.47;101179.31;4915266;29;20051;-72
2022/10/26 03:39:38;;;;;;;11.55;7.32;;;;;;;8.21;71.65;101176.16;4915420;29;20052;-72
2022/10/26 03:42:05;;;;;;;13.25;8.43;;;;;;;8.35;71.50;101182.97;4915356;29;20052;-71
2022/10/26 03:44:31;;;;;;;15.30;8.35;;;;;;;8.34;71.59;101173.28;4911269;29;20417;-71
2022/10/26 03:46:57;;;;;;;17.30;8.65;;;;;;;8.27;71.50;101170.28;4888794;29;20052;-70
2022/10/26 03:49:24;;;;;;;10.77;7.85;;;;;;;8.45;70.56;101170.50;4877695;29;20055;-71
2022/10/26 03:51:50;;;;;;;11.65;8.50;;;;;;;8.55;70.68;101179.41;4877627;29;20057;-71
2022/10/26 03:54:17;;;;;;;16.38;7.90;;;;;;;8.63;70.12;101172.53;4884374;29;20044;-71
2022/10/26 03:56:43;;;;;;;12.02;8.00;;;;;;;8.54;70.51;101175.03;4895963;29;20051;-71
2022/10/26 03:59:10;;;;;;;18.85;8.32;;;;;;;8.48;70.72;101167.56;4895751;29;20425;-71
2022/10/26 04:01:37;;;;;;;14.98;7.35;;;;;;;8.48;70.82;101177.41;4896380;29;20100;-71
2022/10/26 04:04:04;;;;;;;15.00;7.45;;;;;;;8.48;70.72;101178.25;4896124;29;20051;-71
2022/10/26 04:06:30;;;;;;;22.73;8.15;;;;;;;8.54;70.34;101174.19;4896275;29;20093;-72
2022/10/26 04:09:01;;;;;;;16.20;9.52;;;;;;;8.43;70.69;101177.78;4912724;29;20555;-71
2022/10/26 04:11:28;;;;;;;12.32;8.85;;;;;;;8.09;71.93;101183.44;4915133;29;20433;-71
2022/10/26 04:13:54;;;;;;;12.40;7.85;;;;;;;7.95;72.46;101190.91;4914831;29;20048;-72
2022/10/26 04:16:21;;;;;;;12.45;8.15;;;;;;;7.93;72.92;101191.06;4914834;29;20052;-71
2022/10/26 04:18:47;;;;;;;12.27;8.75;;;;;;;7.97;72.43;101188.97;4891550;29;20063;-72
2022/10/26 04:21:14;;;;;;;15.07;8.80;;;;;;;7.88;72.48;101188.81;4877341;29;20049;-72
2022/10/26 04:23:40;;;;;;;15.65;8.00;;;;;;;7.99;72.04;101187.88;4877226;29;20072;-69
2022/10/26 04:26:06;;;;;;;12.65;7.68;;;;;;;7.96;72.33;101184.63;4877080;29;20060;-70
2022/10/26 04:28:33;;;;;;;14.43;8.18;;;;;;;8.00;71.62;101186.88;4892647;29;20056;-72
2022/10/26 04:30:59;;;;;;;13.10;7.93;;;;;;;8.07;71.59;101185.38;4895062;29;20053;-72
2022/10/26 04:33:26;;;;;;;14.25;8.43;;;;;;;8.17;71.47;101190.78;4876804;29;20430;-70
2022/10/26 04:35:58;;;;;;;17.75;9.10;;;;;;;8.01;71.99;101180.56;4876162;29;20525;-71
2022/10/26 04:38:24;;;;;;;;;;;;;;;7.88;72.71;101190.59;4877391;29;20048;-71
2022/10/26 04:40:51;;;;;;;15.77;8.07;;;;;;;7.90;72.54;101191.31;4876413;29;20384;-71
2022/10/26 04:43:17;;;;;;;17.23;8.27;;;;;;;7.81;72.40;101181.38;4876065;29;20056;-71
2022/10/26 04:45:43;;;;;;;13.07;8.43;;;;;;;7.97;72.09;101188.97;4876384;29;20145;-71
2022/10/26 04:48:12;;;;;;;15.95;8.23;;;;;;;7.79;72.33;101188.69;4876869;29;20060;-69
2022/10/26 04:50:39;;;;;;;13.00;7.13;;;;;;;8.03;71.85;101186.63;4895885;29;20477;-71
2022/10/26 04:53:07;;;;;;;16.10;8.20;;;;;;;8.07;71.73;101193.41;4895733;29;20053;-72
2022/10/26 04:55:34;;;;;;;13.50;7.82;;;;;;;8.10;71.54;101190.47;4895773;29;20062;-72
2022/10/26 04:58:00;;;;;;;15.07;8.45;;;;;;;8.16;71.51;101182.88;4895305;29;20539;-71
2022/10/26 05:00:29;;;;;;;13.43;8.20;;;;;;;8.18;71.30;101183.59;4895069;29;20109;-72
2022/10/26 05:03:00;;;;;;;12.45;8.52;;;;;;;7.97;72.02;101176.47;4895379;29;20057;-72
2022/10/26 05:05:28;;;;;;;18.47;9.17;;;;;;;7.93;72.14;101182.22;4895471;29;20131;-72
2022/10/26 05:07:55;;;;;;;15.98;8.25;;;;;;;8.01;71.67;101175.22;4907103;29;20055;-72
2022/10/26 05:10:22;;;;;;;12.40;8.35;;;;;;;7.86;72.28;101176.53;4917748;29;20055;-71
2022/10/26 05:12:53;;;;;;;18.95;10.30;;;;;;;7.79;72.61;101181.53;4917580;29;20412;-71
2022/10/26 05:15:21;;;;;;;14.80;9.13;;;;;;;7.84;72.21;101179.34;4917437;29;20052;-71
2022/10/26 05:18:01;;;;;;;19.52;9.27;;;;;;;7.85;72.47;101181.03;4917438;29;20048;-71
2022/10/26 05:20:30;;;;;;;16.38;9.40;;;;;;;8.06;71.51;101177.50;4917350;29;20079;-71
2022/10/26 05:22:58;;;;;;;18.50;8.38;;;;;;;7.78;72.18;101179.00;4917307;29;20076;-71
2022/10/26 05:25:25;;;;;;;15.50;8.82;;;;;;;8.09;71.08;101175.41;4917288;29;20052;-72
2022/10/26 05:27:55;;;;;;;18.02;8.82;;;;;;;8.04;71.00;101174.94;4917390;29;20075;-72
2022/10/26 05:30:22;;;;;;;11.67;7.80;;;;;;;8.04;71.18;101182.97;4917268;29;20051;-71
2022/10/26 05:32:55;;;;;;;13.65;8.75;;;;;;;8.10;70.69;101177.09;4917170;29;20084;-71
2022/10/26 05:35:22;;;;;;;19.02;8.38;;;;;;;8.14;70.37;101186.53;4917301;29;20123;-72
2022/10/26 05:37:49;;;;;;;12.80;7.85;;;;;;;8.07;70.51;101184.53;4916303;29;20048;-70
2022/10/26 05:40:16;;;;;;;14.40;8.05;;;;;;;7.97;70.60;101184.47;4916893;29;20048;-71
2022/10/26 05:42:43;;;;;;;13.20;8.18;;;;;;;7.91;70.49;101187.66;4916824;29;20052;-71
2022/10/26 05:45:11;;;;;;;18.23;9.07;;;;;;;8.01;70.62;101179.72;4917263;29;20064;-71
2022/10/26 05:47:41;;;;;;;16.52;8.68;;;;;;;7.98;70.37;101182.66;4917083;29;20051;-71
2022/10/26 05:50:09;;;;;;;17.20;9.15;;;;;;;7.96;70.22;101188.13;4900309;29;20048;-72
2022/10/26 05:52:43;;;;;;;16.83;8.65;;;;;;;7.61;71.56;101191.13;4916738;29;20044;-71
2022/10/26 05:55:13;;;;;;;21.40;8.55;;;;;;;7.66;71.44;101194.22;4916513;29;20047;-70
2022/10/26 05:57:40;;;;;;;17.25;9.50;;;;;;;7.48;72.19;101193.97;4916244;29;20044;-70
2022/10/26 06:00:22;;;;;;;15.57;8.38;;;;;;;7.64;71.86;101189.03;4897892;29;20041;-72
2022/10/26 06:02:54;;;;;;;16.67;8.93;;;;;;;7.70;71.32;101179.63;4878861;29;20055;-71
2022/10/26 06:05:25;;;;;;;17.63;9.68;;;;;;;7.74;71.50;101194.44;4879091;29;20061;-71
2022/10/26 06:07:51;;;;;;;18.73;9.10;;;;;;;7.78;71.42;101200.38;4895168;29;20052;-71
2022/10/26 06:10:18;;;;;;;13.52;9.43;;;;;;;7.84;70.98;101194.50;4916451;29;20070;-72
2022/10/26 06:12:45;;;;;;;17.67;9.75;;;;;;;7.53;72.18;101198.91;4916383;29;20051;-70
2022/10/26 06:15:18;;;;;;;20.08;9.50;;;;;;;7.80;71.44;101198.41;4916528;29;20068;-67
2022/10/26 06:18:16;;;;;;;20.58;9.55;;;;;;;7.89;70.95;101198.50;4915923;29;20413;-71
2022/10/26 06:21:22;;;;;;;19.58;10.55;;;;;;;7.69;71.65;101210.00;4915449;29;20469;-71
2022/10/26 06:24:01;;;;;;;20.60;11.10;;;;;;;7.71;71.69;101202.72;4915578;29;20066;-71
2022/10/26 06:26:52;;;;;;;15.25;10.23;;;;;;;7.68;72.05;101210.13;4916154;29;20056;-71
2022/10/26 06:29:34;;;;;;;16.13;10.02;;;;;;;7.63;72.18;101214.00;4916275;29;20052;-71
2022/10/26 06:32:01;;;;;;;15.75;9.68;;;;;;;7.71;72.21;101216.06;4915928;29;20052;-71
2022/10/26 06:34:34;;;;;;;16.77;9.98;;;;;;;7.62;72.46;101215.00;4916118;29;20420;-72
2022/10/26 06:37:01;;;;;;;15.18;10.48;;;;;;;7.62;73.20;101212.34;4915863;29;20063;-71
2022/10/26 06:39:34;;;;;;;16.88;9.88;;;;;;;7.64;72.93;101217.56;4915992;29;20058;-72
2022/10/26 06:42:00;;;;;;;17.40;10.88;;;;;;;7.90;72.34;101216.22;4915970;29;20058;-71
2022/10/26 06:44:27;;;;;;;14.25;9.65;;;;;;;8.10;71.69;101216.34;4915722;29;20100;-72
2022/10/26 06:47:08;;;;;;;19.02;10.10;;;;;;;8.00;71.87;101220.78;4915543;29;20051;-72
2022/10/26 06:49:37;;;;;;;20.45;10.55;;;;;;;8.02;71.91;101219.69;4915864;29;20050;-71
2022/10/26 06:52:06;;;;;;;20.23;10.13;;;;;;;8.15;71.46;101224.78;4915488;29;20412;-70
2022/10/26 06:54:59;;;;;;;20.50;10.43;;;;;;;7.83;72.45;101219.50;4915628;29;20052;-72
2022/10/26 06:57:34;;;;;;;21.48;10.60;;;;;;;7.88;72.59;101217.31;4911954;29;20055;-71
2022/10/26 07:00:07;;;;;;;16.35;10.00;;;;;;;7.88;72.48;101223.53;4915352;29;20056;-70
2022/10/26 07:02:33;;;;;;;18.35;10.18;;;;;;;8.17;71.86;101216.66;4915113;29;20059;-70
2022/10/26 07:05:00;;;;;;;16.55;10.20;;;;;;;8.08;72.14;101215.63;4915388;29;20079;-71
2022/10/26 07:07:29;;;;;;;14.07;9.98;;;;;;;8.16;72.24;101221.16;4914787;29;20048;-70
2022/10/26 07:09:56;;;;;;;18.05;10.75;;;;;;;8.18;71.99;101218.34;4915026;29;20052;-71
2022/10/26 07:12:23;;;;;;;17.65;10.10;;;;;;;8.01;72.70;101223.31;4915124;29;20059;-72
2022/10/26 07:14:49;;;;;;;16.55;10.13;;;;;;;8.06;72.93;101228.28;4915147;29;20055;-71
2022/10/26 07:17:15;;;;;;;19.45;9.43;;;;;;;8.31;72.46;101218.97;4915261;29;20052;-69
2022/10/26 07:19:43;;;;;;;19.25;11.25;;;;;;;8.61;71.11;101221.66;4915514;29;20405;-70
2022/10/26 07:22:10;;;;;;;20.60;10.63;;;;;;;8.61;71.10;101221.66;4915173;29;20043;-70
2022/10/26 07:24:36;;;;;;;17.95;10.15;;;;;;;8.79;70.58;101229.88;4915085;29;20489;-71
2022/10/26 07:27:03;;;;;;;18.05;10.52;;;;;;;8.84;70.47;101222.28;4914524;29;20048;-71
2022/10/26 07:29:29;;;;;;;13.95;9.63;;;;;;;8.71;70.95;101229.72;4914712;29;20052;-71
2022/10/26 07:31:56;;;;;;;18.77;10.68;;;;;;;8.51;71.40;101226.13;4915090;29;20409;-71
2022/10/26 07:34:22;;;;;;;16.38;9.43;;;;;;;8.78;70.98;101222.84;4914976;29;20048;-71
2022/10/26 07:36:50;;;;;;;22.92;9.77;;;;;;;8.70;71.51;101222.66;4914613;29;20055;-71
2022/10/26 07:39:16;;;;;;;20.30;10.27;;;;;;;8.56;71.70;101226.53;4914868;29;20050;-70
2022/10/26 07:41:44;;;;;;;18.75;10.40;;;;;;;8.16;73.33;101223.84;4915298;29;20048;-70
2022/10/26 07:44:10;;;;;;;18.95;10.18;;;;;;;8.61;72.39;101228.84;4914764;29;20067;-70
2022/10/26 07:46:37;;;;;;;18.67;10.27;;;;;;;8.71;72.16;101227.03;4914786;29;20048;-72
2022/10/26 07:49:03;;;;;;;21.50;10.70;;;;;;;8.78;71.73;101227.31;4914306;29;20055;-70
2022/10/26 07:51:30;;;;;;;21.30;10.50;;;;;;;8.79;71.80;101227.19;4897969;29;20063;-70
2022/10/26 07:53:56;;;;;;;16.98;10.40;;;;;;;8.86;71.81;101227.50;4914883;29;20131;-71
2022/10/26 07:56:23;;;;;;;14.10;9.82;;;;;;;8.78;72.05;101224.63;4914147;29;20101;-71
2022/10/26 07:58:51;;;;;;;19.27;10.38;;;;;;;9.22;70.86;101217.13;4914473;29;20044;-71
2022/10/26 08:01:18;;;;;;;20.58;9.20;;;;;;;9.31;70.65;101227.06;4914779;29;20048;-71
2022/10/26 08:03:45;;;;;;;19.75;10.13;;;;;;;9.43;70.19;101231.28;4914419;29;20553;-69
2022/10/26 08:06:12;;;;;;;20.40;9.52;;;;;;;9.45;69.65;101234.66;4915265;29;20490;-71
2022/10/26 08:08:39;;;;;;;20.25;10.25;;;;;;;9.69;69.49;101238.75;4914440;29;20048;-69
2022/10/26 08:11:12;;;;;;;17.35;9.68;;;;;;;9.76;69.33;101230.00;4898429;29;20048;-69
2022/10/26 08:13:38;;;;;;;18.40;10.35;;;;;;;9.99;68.61;101230.56;4914300;29;20052;-70
2022/10/26 08:16:05;;;;;;;15.98;8.93;;;;;;;9.51;69.63;101235.94;4914441;29;20056;-70
2022/10/26 08:18:32;;;;;;;16.88;8.55;;;;;;;9.81;69.53;101237.59;4914509;29;20071;-69
2022/10/26 08:21:07;;;;;;;19.35;8.07;;;;;;;10.21;67.94;101236.56;4914569;29;20075;-70
2022/10/26 08:23:40;;;;;;;17.40;8.43;;;;;;;10.41;67.27;101235.50;4914306;29;20091;-71
2022/10/26 08:26:10;;;;;;;20.58;8.90;;;;;;;10.66;67.12;101234.03;4914283;29;20055;-70
2022/10/26 08:28:37;;;;;;;14.63;8.57;;;;;;;11.09;65.49;101237.03;4914433;29;20489;-71
2022/10/26 08:31:04;;;;;;;16.23;7.75;;;;;;;11.34;64.36;101238.97;5508570;23;20119;-71
2022/10/26 08:33:31;;;;;;;25.10;7.47;;;;;;;12.07;62.07;101241.50;4895644;29;20044;-71
2022/10/26 08:35:59;;;;;;;16.48;7.55;;;;;;;12.73;60.09;101233.78;4895294;29;20472;-72
2022/10/26 08:38:27;;;;;;;16.48;7.13;;;;;;;13.02;58.68;101236.13;4895881;29;20051;-71
2022/10/26 08:40:56;;;;;;;14.20;5.97;;;;;;;13.76;56.53;101239.78;4897822;29;20044;-72
2022/10/26 08:44:00;;;;;;;12.02;6.32;;;;;;;14.22;55.01;101232.84;4899844;29;20445;-72
2022/10/26 08:46:33;;;;;;;12.90;6.18;;;;;;;14.63;54.01;101235.41;4859605;29;20076;-69
2022/10/26 08:49:10;;;;;;;13.48;6.38;;;;;;;13.47;55.58;101241.09;4859826;29;20053;-69
2022/10/26 08:51:41;;;;;;;13.15;6.05;;;;;;;12.07;60.70;101237.94;4859989;29;20509;-70
2022/10/26 08:54:47;;;;;;;11.73;5.97;;;;;;;12.43;60.35;101235.16;4859671;29;20057;-71
2022/10/26 08:57:21;;;;;;;12.65;5.85;;;;;;;12.85;58.25;101236.06;4806005;29;20467;-70
2022/10/26 08:59:52;;;;;;;14.18;6.00;;;;;;;12.88;58.18;101235.72;4859492;29;20398;-70
2022/10/26 09:02:19;;;;;;;13.10;5.63;;;;;;;13.17;57.26;101233.63;4854581;29;20061;-71
2022/10/26 09:04:46;;;;;;;11.50;6.03;;;;;;;13.36;56.82;101233.34;4859324;29;20053;-70
2022/10/26 09:07:54;;;;;;;15.95;6.13;;;;;;;13.19;57.35;101232.47;4859741;29;20049;-69
2022/10/26 09:10:40;;;;;;;11.18;5.72;;;;;;;13.98;55.82;101228.34;4838848;29;20053;-70
2022/10/26 09:13:35;;;;;;;12.55;5.75;;;;;;;14.38;54.49;101239.22;4859768;29;20050;-70
2022/10/26 09:16:23;;;;;;;10.95;5.28;;;;;;;14.26;54.16;101228.78;4843603;29;20054;-71
2022/10/26 09:19:22;;;;;;;20.27;6.15;;;;;;;14.64;53.59;101239.81;4859050;29;20048;-71
2022/10/26 09:22:11;;;;;;;10.13;5.80;;;;;;;15.58;50.67;101235.25;4898330;29;20067;-71
2022/10/26 09:24:58;;;;;;;10.88;5.25;;;;;;;15.91;49.48;101243.13;4898528;29;20048;-72
2022/10/26 09:27:42;;;;;;;12.27;4.82;;;;;;;16.03;49.46;101240.84;4898401;29;20041;-72
2022/10/26 09:30:14;;;;;;;8.30;5.47;;;;;;;16.40;48.65;101243.50;4897595;29;20477;-72
2022/10/26 09:32:45;;;;;;;10.90;5.13;;;;;;;16.97;47.61;101233.03;4897914;29;20056;-71
2022/10/26 09:35:21;;;;;;;18.35;5.63;;;;;;;17.32;46.97;101236.75;4898314;29;20072;-71
2022/10/26 09:38:05;;;;;;;10.43;4.90;;;;;;;17.42;46.36;101242.72;4898368;29;20041;-71
2022/10/26 09:40:46;;;;;;;12.02;5.03;;;;;;;17.52;46.26;101237.84;4897712;29;20512;-72
2022/10/26 09:43:17;;;;;;;10.68;5.22;;;;;;;17.15;46.13;101241.56;4897938;29;20056;-73
2022/10/26 09:45:47;;;;;;;8.88;4.47;;;;;;;18.01;44.27;101245.16;4898009;29;20048;-72
2022/10/26 09:48:21;;;;;;;12.88;4.97;;;;;;;17.95;44.35;101248.66;4898062;29;20052;-72
2022/10/26 09:50:50;;;;;;;10.85;4.35;;;;;;;17.18;45.96;101245.78;4897871;29;20049;-72
2022/10/26 09:53:16;;;;;;;8.68;4.50;;;;;;;16.77;47.01;101246.31;4896899;29;20397;-72
2022/10/26 09:55:46;;;;;;;5.97;4.40;;;;;;;17.11;46.48;101246.53;4897943;29;20101;-72
2022/10/26 09:58:46;;;;;;;8.75;4.45;;;;;;;16.74;47.02;101239.38;4897430;29;20192;-72
2022/10/26 10:01:29;;;;;;;8.98;4.75;;;;;;;16.29;48.23;101241.22;4896983;29;20060;-72
2022/10/26 10:04:27;;;;;;;9.60;4.88;;;;;;;15.97;48.94;101253.22;4897569;29;20120;-72
2022/10/26 10:06:59;;;;;;;10.45;4.53;;;;;;;17.08;47.04;101243.38;4897244;29;20041;-71
2022/10/26 10:09:26;;;;;;;11.95;5.45;;;;;;;17.08;46.73;101252.34;4897701;29;20488;-71
2022/10/26 10:11:56;;;;;;;8.60;4.75;;;;;;;16.09;48.24;101251.78;4898132;29;20394;-72
2022/10/26 10:14:27;;;;;;;7.10;3.80;;;;;;;16.22;48.45;101245.69;4897607;29;20052;-72
2022/10/26 10:16:55;;;;;;;6.93;4.25;;;;;;;16.50;48.33;101254.06;4897050;29;20309;-72
2022/10/26 10:19:24;;;;;;;17.23;5.57;;;;;;;17.05;47.33;101243.75;4897618;29;20453;-72
2022/10/26 10:21:55;;;;;;;10.18;4.40;;;;;;;17.26;46.41;101254.63;4896865;29;20507;-72
2022/10/26 10:24:22;;;;;;;6.90;3.75;;;;;;;16.81;46.91;101250.31;4896836;29;20484;-72
2022/10/26 10:26:58;;;;;;;10.02;3.97;;;;;;;16.67;47.24;101246.59;4897375;29;20128;-71
2022/10/26 10:29:41;;;;;;;7.88;4.03;;;;;;;17.35;45.93;101252.66;4897101;29;20519;-70
2022/10/26 10:32:14;;;;;;;10.35;3.92;;;;;;;17.13;46.35;101249.91;4896412;29;20056;-71
2022/10/26 10:34:41;;;;;;;8.93;4.40;;;;;;;16.95;46.86;101243.19;4897070;29;20074;-71
2022/10/26 10:37:24;;;;;;;11.27;4.15;;;;;;;16.60;47.01;101251.09;4896900;29;20048;-71
2022/10/26 10:39:59;;;;;;;9.75;4.07;;;;;;;16.88;46.32;101243.13;4896280;29;20074;-68
2022/10/26 10:42:35;;;;;;;11.85;3.78;;;;;;;16.24;48.38;101246.38;4896717;29;20059;-70
2022/10/26 10:45:04;;;;;;;10.35;4.22;;;;;;;16.52;47.83;101245.75;4896638;29;20063;-69
2022/10/26 10:47:32;;;;;;;11.55;4.45;;;;;;;16.41;48.20;101247.88;4896724;29;20135;-69
2022/10/26 10:50:18;;;;;;;12.80;4.20;;;;;;;17.12;46.87;101237.34;4896807;29;20075;-70
2022/10/26 10:52:46;;;;;;;7.18;4.00;;;;;;;16.85;46.88;101247.06;4896639;29;20052;-68
2022/10/26 10:55:12;;;;;;;10.95;4.75;;;;;;;16.92;47.20;101235.44;4896495;29;20062;-68
2022/10/26 10:58:04;;;;;;;9.82;4.18;;;;;;;16.63;47.58;101251.53;4896690;29;20069;-70
2022/10/26 11:00:35;;;;;;;10.05;4.28;;;;;;;16.89;47.18;101240.22;4896383;29;20052;-68
2022/10/26 11:03:16;;;;;;;10.55;3.60;;;;;;;17.76;45.38;101246.63;4896548;29;20060;-70
2022/10/26 11:06:03;;;;;;;9.02;4.57;;;;;;;17.49;45.61;101248.22;4896462;29;20044;-69
2022/10/26 11:08:36;;;;;;;11.30;4.53;;;;;;;17.75;45.55;101247.63;4896274;29;20051;-69
2022/10/26 11:11:05;;;;;;;11.88;4.45;;;;;;;16.87;47.41;101241.44;4896421;29;20401;-69
2022/10/26 11:13:50;;;;;;;15.30;4.20;;;;;;;17.85;45.37;101240.00;4896510;29;20500;-69
2022/10/26 11:16:29;;;;;;;8.55;3.75;;;;;;;17.79;45.49;101244.34;4895980;29;20501;-69
2022/10/26 11:19:02;;;;;;;8.38;3.67;;;;;;;17.40;45.69;101249.38;4896049;29;20071;-69
2022/10/26 11:21:32;;;;;;;6.63;3.20;;;;;;;17.06;46.82;101243.56;4896124;29;20049;-70
2022/10/26 11:24:10;;;;;;;5.45;3.10;;;;;;;18.00;44.40;101240.75;4895489;29;20045;-69
2022/10/26 11:26:43;;;;;;;10.93;2.92;;;;;;;18.62;42.78;101244.56;4896423;29;20497;-68
2022/10/26 11:29:37;;;;;;;5.40;3.33;;;;;;;18.95;42.16;101242.00;4896143;29;20056;-69
2022/10/26 11:32:15;;;;;;;11.82;3.17;;;;;;;19.62;40.76;101234.00;4895403;29;20402;-69
2022/10/26 11:34:49;;;;;;;8.45;3.00;;;;;;;19.78;40.26;101239.09;4896161;29;20044;-72
2022/10/26 11:37:24;;;;;;;8.07;3.40;;;;;;;20.65;38.08;101229.75;4895525;29;20053;-69
2022/10/26 11:40:35;;;;;;;6.43;2.40;;;;;;;20.42;38.01;101240.34;4895890;29;20052;-70
2022/10/26 11:43:07;;;;;;;8.32;2.90;;;;;;;19.37;39.89;101234.59;4886378;29;20390;-69
2022/10/26 11:45:38;;;;;;;8.32;2.72;;;;;;;20.81;37.91;101225.72;4895931;29;20044;-68
2022/10/26 11:48:50;;;;;;;12.95;3.45;;;;;;;21.35;36.54;101224.41;4896034;29;20052;-69
2022/10/26 11:51:23;;;;;;;5.65;2.67;;;;;;;20.76;36.83;101224.69;4885884;29;20401;-69